Maywood, Nebraska
Current Conditions -  °F | °C
As of 8:53 AM on Monday 24 Nov 2014 (Local Time) from KMCK Reporting Station
Clear Clear  
Wind Chill: 23°   Ceiling: Unl
Heat Index: 33°   Visibility: 10mi
Dew Point: 15°   Wind: 16mph
Humidity: 48%   Direction: 300°WNW
Pressure: 29.85"   Gusts: NA
Location:  40.66°N, 100.62°W
Report Text: KMCK 241453Z AUTO 30014KT 10SM CLR 01/M09 A2985 RMK AO2 SLP127 T00061094 53029
Loading
Personal Weather Stations






























Interactive Weather Map New forecast layout! Learn more

10-Day Weather Forecast

Advertisements
Track Severe Weather on mobile